createdAt,value
2022-10-04T00:01:12.584Z,1.77
2022-10-04T00:03:51.428Z,3.85
2022-10-04T00:06:26.313Z,4.22
2022-10-04T00:08:59.221Z,1.62
2022-10-04T00:11:32.501Z,4.47
2022-10-04T00:14:06.222Z,2.80
2022-10-04T00:16:38.605Z,2.47
2022-10-04T00:19:15.694Z,5.60
2022-10-04T00:21:52.496Z,3.33
2022-10-04T00:24:28.770Z,2.28
2022-10-04T00:27:11.364Z,1.33
2022-10-04T00:29:42.295Z,2.12
2022-10-04T00:32:12.604Z,3.58
2022-10-04T00:34:51.984Z,2.78
2022-10-04T00:37:22.255Z,1.50
2022-10-04T00:40:14.659Z,4.30
2022-10-04T00:42:47.949Z,1.42
2022-10-04T00:45:35.578Z,3.47
2022-10-04T00:48:16.115Z,1.85
2022-10-04T00:50:51.314Z,2.28
2022-10-04T00:53:37.739Z,3.87
2022-10-04T00:56:11.735Z,4.65
2022-10-04T00:59:03.268Z,1.67
2022-10-04T01:01:35.487Z,2.65
2022-10-04T01:04:06.435Z,2.62
2022-10-04T01:06:37.004Z,3.53
2022-10-04T01:09:09.692Z,2.60
2022-10-04T01:12:14.411Z,2.08
2022-10-04T01:15:11.976Z,1.95
2022-10-04T01:17:40.310Z,2.55
2022-10-04T01:20:36.271Z,4.60
2022-10-04T01:23:04.292Z,3.10
2022-10-04T01:25:49.384Z,3.10
2022-10-04T01:28:17.724Z,1.60
2022-10-04T01:30:45.664Z,6.50
2022-10-04T01:33:13.872Z,1.70
2022-10-04T01:35:41.711Z,1.30
2022-10-04T01:38:09.327Z,2.15
2022-10-04T01:40:44.177Z,1.20
2022-10-04T01:43:17.125Z,4.60
2022-10-04T01:45:50.585Z,1.47
2022-10-04T01:48:23.681Z,3.35
2022-10-04T01:51:01.449Z,3.17
2022-10-04T01:53:32.205Z,2.78
2022-10-04T01:56:12.705Z,3.90
2022-10-04T01:58:47.330Z,3.47
2022-10-04T02:01:28.705Z,2.17
2022-10-04T02:04:04.186Z,1.17
2022-10-04T02:06:38.835Z,2.00
2022-10-04T02:09:26.742Z,1.85
2022-10-04T02:11:55.075Z,2.73
2022-10-04T02:14:26.097Z,3.40
2022-10-04T02:16:54.060Z,4.70
2022-10-04T02:19:32.611Z,2.45
2022-10-04T02:22:04.022Z,1.75
2022-10-04T02:24:35.077Z,2.17
2022-10-04T02:27:03.199Z,4.05
2022-10-04T02:29:30.703Z,1.52
2022-10-04T02:32:17.963Z,1.75
2022-10-04T02:34:47.795Z,5.03
2022-10-04T02:37:15.508Z,3.80
2022-10-04T02:39:53.591Z,3.25
2022-10-04T02:42:52.219Z,3.15
2022-10-04T02:45:26.873Z,2.28
2022-10-04T02:48:17.987Z,2.40
2022-10-04T02:50:50.874Z,3.17
2022-10-04T02:53:32.623Z,1.67
2022-10-04T02:56:02.954Z,3.33
2022-10-04T02:58:32.337Z,1.25
2022-10-04T03:01:00.846Z,1.40
2022-10-04T03:03:39.301Z,3.73
2022-10-04T03:06:13.143Z,4.28
2022-10-04T03:08:43.348Z,2.50
2022-10-04T03:11:14.062Z,3.00
2022-10-04T03:13:47.022Z,1.65
2022-10-04T03:16:15.765Z,3.73
2022-10-04T03:18:44.752Z,1.85
2022-10-04T03:21:14.888Z,3.00
2022-10-04T03:23:43.559Z,3.05
2022-10-04T03:26:45.533Z,2.70
2022-10-04T03:29:16.378Z,4.00
2022-10-04T03:31:50.498Z,1.73
2022-10-04T03:34:24.908Z,1.55
2022-10-04T03:36:56.318Z,2.00
2022-10-04T03:39:33.897Z,3.87
2022-10-04T03:42:07.243Z,2.83
2022-10-04T03:44:35.225Z,3.87
2022-10-04T03:47:09.678Z,2.12
2022-10-04T03:49:38.670Z,1.98
2022-10-04T03:52:15.442Z,2.33
2022-10-04T03:54:43.728Z,2.20
2022-10-04T03:57:12.604Z,3.83
2022-10-04T03:59:40.223Z,3.30
2022-10-04T04:02:26.284Z,3.83
2022-10-04T04:05:03.247Z,2.67
2022-10-04T04:07:36.764Z,1.80
2022-10-04T04:10:17.115Z,6.15
2022-10-04T04:12:55.240Z,3.37
2022-10-04T04:15:26.544Z,5.22
2022-10-04T04:17:55.425Z,2.75
2022-10-04T04:20:31.179Z,1.87
2022-10-04T04:23:04.010Z,2.58
2022-10-04T04:25:38.218Z,1.90
2022-10-04T04:28:14.114Z,4.65
2022-10-04T04:30:48.034Z,2.40
2022-10-04T04:33:26.878Z,1.83
2022-10-04T04:36:02.593Z,1.98
2022-10-04T04:38:30.081Z,1.98
2022-10-04T04:41:07.618Z,3.20
2022-10-04T04:43:35.380Z,4.85
2022-10-04T04:46:26.770Z,4.10
2022-10-04T04:49:02.612Z,2.12
2022-10-04T04:51:33.167Z,2.95
2022-10-04T04:54:03.794Z,1.48
2022-10-04T04:56:31.860Z,1.98
2022-10-04T04:59:03.417Z,2.40
2022-10-04T05:01:44.058Z,2.83
2022-10-04T05:04:14.307Z,4.68
2022-10-04T05:06:47.718Z,4.03
2022-10-04T05:09:30.791Z,5.05
2022-10-04T05:12:07.819Z,2.53
2022-10-04T05:14:39.751Z,2.58
2022-10-04T05:17:07.568Z,5.45
2022-10-04T05:19:39.840Z,2.60
2022-10-04T05:22:11.474Z,1.80
2022-10-04T05:24:43.129Z,2.23
2022-10-04T05:27:32.913Z,1.40
2022-10-04T05:30:02.977Z,2.97
2022-10-04T05:32:54.560Z,2.45
2022-10-04T05:35:23.196Z,3.12
2022-10-04T05:38:09.616Z,2.57
2022-10-04T05:40:45.472Z,1.67
2022-10-04T05:43:44.707Z,2.37
2022-10-04T05:46:18.888Z,4.57
2022-10-04T05:48:53.108Z,3.35
2022-10-04T05:51:22.428Z,1.30
2022-10-04T05:53:50.704Z,2.22
2022-10-04T05:56:42.360Z,4.72
2022-10-04T05:59:28.592Z,4.50
2022-10-04T06:02:16.336Z,3.33
2022-10-04T06:05:02.632Z,1.40
2022-10-04T06:07:32.652Z,2.72
2022-10-04T06:10:26.812Z,2.35
2022-10-04T06:13:04.224Z,2.12
2022-10-04T06:15:56.823Z,3.00
2022-10-04T06:18:44.600Z,4.83
2022-10-04T06:21:25.619Z,3.37
2022-10-04T06:24:11.569Z,3.08
2022-10-04T06:26:44.819Z,2.37
2022-10-04T06:29:17.881Z,4.32
2022-10-04T06:32:21.189Z,5.80
2022-10-04T06:35:27.696Z,2.95
2022-10-04T06:38:16.920Z,2.65
2022-10-04T06:40:58.526Z,4.07
2022-10-04T06:43:42.636Z,3.28
2022-10-04T06:46:36.428Z,4.00
2022-10-04T06:49:17.408Z,2.53
2022-10-04T06:52:16.725Z,4.40
2022-10-04T06:55:06.178Z,9.07
2022-10-04T06:57:39.515Z,2.58
2022-10-04T07:00:21.618Z,3.77
2022-10-04T07:03:04.518Z,3.87
2022-10-04T07:05:53.243Z,3.80
2022-10-04T07:08:36.795Z,2.25
2022-10-04T07:11:17.590Z,6.53
2022-10-04T07:14:18.807Z,2.13
2022-10-04T07:16:55.004Z,7.60
2022-10-04T07:19:35.050Z,2.55
2022-10-04T07:22:12.310Z,2.67
2022-10-04T07:24:42.433Z,6.68
2022-10-04T07:27:16.526Z,4.03
2022-10-04T07:29:46.613Z,3.58
2022-10-04T07:32:38.871Z,3.55
2022-10-04T07:35:22.105Z,6.93
2022-10-04T07:38:00.295Z,3.55
2022-10-04T07:40:33.455Z,3.40
2022-10-04T07:43:08.256Z,4.32
2022-10-04T07:45:39.985Z,3.00
2022-10-04T07:48:19.923Z,2.60
2022-10-04T07:51:02.370Z,3.53
2022-10-04T07:53:42.506Z,4.83
2022-10-04T07:56:55.248Z,2.85
2022-10-04T07:59:34.959Z,3.80
2022-10-04T08:02:08.151Z,3.00
2022-10-04T08:05:13.296Z,2.90
2022-10-04T08:08:00.908Z,3.03
2022-10-04T08:10:48.744Z,4.00
2022-10-04T08:13:47.597Z,4.93
2022-10-04T08:16:47.054Z,3.55
2022-10-04T08:19:17.863Z,3.25
2022-10-04T08:22:04.234Z,3.37
2022-10-04T08:24:31.582Z,2.62
2022-10-04T08:27:12.362Z,2.97
2022-10-04T08:29:50.358Z,2.55
2022-10-04T08:32:30.792Z,3.25
2022-10-04T08:35:29.495Z,3.73
2022-10-04T08:38:16.882Z,1.85
2022-10-04T08:40:50.111Z,3.35
2022-10-04T08:44:11.573Z,2.47
2022-10-04T08:47:06.647Z,2.83
2022-10-04T08:50:08.039Z,2.40
2022-10-04T08:52:56.900Z,3.55
2022-10-04T08:55:46.296Z,3.53
2022-10-04T08:58:55.661Z,1.83
2022-10-04T09:01:45.447Z,3.12
2022-10-04T09:04:22.799Z,2.57
2022-10-04T09:06:56.392Z,2.15
2022-10-04T09:10:03.733Z,1.90
2022-10-04T09:12:31.360Z,2.28
2022-10-04T09:15:15.059Z,2.37
2022-10-04T09:17:46.958Z,2.50
2022-10-04T09:20:40.927Z,2.30
2022-10-04T09:23:22.146Z,2.45
2022-10-04T09:25:58.613Z,2.95
2022-10-04T09:28:28.957Z,3.75
2022-10-04T09:30:56.354Z,2.10
2022-10-04T09:33:48.575Z,2.65
2022-10-04T09:36:40.762Z,1.70
2022-10-04T09:39:32.911Z,2.40
2022-10-04T09:42:24.772Z,2.37
2022-10-04T09:44:57.933Z,3.27
2022-10-04T09:47:45.947Z,2.22
2022-10-04T09:50:37.238Z,3.00
2022-10-04T09:53:35.765Z,2.15
2022-10-04T09:56:38.625Z,2.30
2022-10-04T09:59:07.320Z,2.70
2022-10-04T10:01:56.203Z,1.87
2022-10-04T10:04:33.131Z,3.08
2022-10-04T10:07:25.128Z,2.03
2022-10-04T10:10:24.912Z,2.53
2022-10-04T10:13:38.969Z,2.80
2022-10-04T10:16:51.200Z,1.80
2022-10-04T10:19:47.416Z,4.47
2022-10-04T10:22:52.403Z,2.75
2022-10-04T10:25:49.089Z,5.15
2022-10-04T10:28:19.468Z,2.60
2022-10-04T10:30:59.271Z,2.53
2022-10-04T10:33:45.921Z,2.45
2022-10-04T10:36:17.249Z,2.62
2022-10-04T10:39:25.305Z,3.03
2022-10-04T10:42:22.683Z,1.70
2022-10-04T10:45:40.539Z,1.77
2022-10-04T10:48:28.031Z,4.97
2022-10-04T10:51:23.230Z,2.65
2022-10-04T10:54:16.645Z,3.67
2022-10-04T10:56:50.308Z,2.60
2022-10-04T10:59:47.558Z,3.00
2022-10-04T11:02:42.266Z,1.85
2022-10-04T11:05:42.934Z,1.58
2022-10-04T11:08:48.344Z,1.87
2022-10-04T11:11:41.881Z,3.00
2022-10-04T11:14:28.411Z,1.40
2022-10-04T11:17:28.559Z,1.25
2022-10-04T11:20:08.527Z,3.35
2022-10-04T11:23:24.079Z,2.25
2022-10-04T11:26:37.715Z,2.40
2022-10-04T11:29:59.191Z,2.70
2022-10-04T11:32:51.231Z,3.50
2022-10-04T11:35:30.944Z,2.50
2022-10-04T11:38:27.454Z,3.30
2022-10-04T11:41:07.342Z,2.63
2022-10-04T11:43:50.262Z,2.40
2022-10-04T11:46:36.084Z,2.03
2022-10-04T11:49:35.748Z,2.83
2022-10-04T11:52:09.003Z,1.85
2022-10-04T11:55:02.845Z,2.03
2022-10-04T11:57:54.115Z,2.40
2022-10-04T12:00:29.885Z,2.17
2022-10-04T12:03:48.934Z,3.95
2022-10-04T12:06:35.025Z,3.17
2022-10-04T12:09:06.012Z,3.07
2022-10-04T12:12:04.465Z,2.87
2022-10-04T12:14:40.429Z,2.67
2022-10-04T12:17:33.066Z,2.37
2022-10-04T12:20:29.101Z,3.10
2022-10-04T12:23:11.549Z,4.33
2022-10-04T12:25:48.329Z,2.12
2022-10-04T12:28:34.689Z,1.98
2022-10-04T12:31:23.232Z,1.98
2022-10-04T12:34:06.028Z,2.95
2022-10-04T12:36:55.624Z,4.93
2022-10-04T12:39:41.537Z,3.40
2022-10-04T12:42:21.548Z,4.25
2022-10-04T12:45:20.137Z,2.15
2022-10-04T12:48:05.940Z,2.35
2022-10-04T12:51:00.305Z,3.33
2022-10-04T12:53:37.152Z,4.00
2022-10-04T12:56:10.464Z,3.20
2022-10-04T12:59:00.821Z,2.20
2022-10-04T13:01:57.604Z,1.95
2022-10-04T13:04:49.058Z,2.90
2022-10-04T13:07:26.225Z,2.92
2022-10-04T13:10:29.385Z,2.40
2022-10-04T13:13:41.156Z,3.47
2022-10-04T13:19:48.169Z,2.57
2022-10-04T13:22:54.757Z,2.92
2022-10-04T13:25:39.703Z,2.92
2022-10-04T13:28:33.332Z,2.95
2022-10-04T13:31:33.007Z,1.95
2022-10-04T13:34:11.989Z,2.57
2022-10-04T13:36:57.723Z,4.22
2022-10-04T13:39:28.025Z,3.58
2022-10-04T13:42:29.304Z,3.28
2022-10-04T13:45:21.475Z,1.73
2022-10-04T13:48:11.942Z,3.63
2022-10-04T13:50:52.506Z,3.15
2022-10-04T13:53:50.665Z,3.28
2022-10-04T13:56:55.706Z,2.83
2022-10-04T13:59:42.532Z,2.72
2022-10-04T14:02:16.014Z,4.83
2022-10-04T14:05:21.081Z,2.70
2022-10-04T14:08:14.948Z,2.17
2022-10-04T14:10:45.238Z,3.45
2022-10-04T14:14:00.441Z,4.65
2022-10-04T14:16:32.973Z,4.23
2022-10-04T14:19:43.900Z,2.50
2022-10-04T14:22:57.136Z,2.65
2022-10-04T14:25:49.311Z,2.75
2022-10-04T14:28:38.642Z,2.92
2022-10-04T14:31:08.918Z,2.07
2022-10-04T14:34:05.771Z,2.35
2022-10-04T14:36:56.875Z,2.03
2022-10-04T14:39:46.219Z,2.03
2022-10-04T14:42:34.595Z,1.70
2022-10-04T14:45:13.880Z,1.93
2022-10-04T14:48:06.306Z,1.42
2022-10-04T14:50:57.830Z,2.75
2022-10-04T14:53:37.235Z,4.97
2022-10-04T14:56:39.976Z,3.35
2022-10-04T14:59:10.403Z,1.80
2022-10-04T15:01:43.960Z,5.50
2022-10-04T15:04:36.726Z,3.15
2022-10-04T15:07:16.138Z,4.53
2022-10-04T15:09:46.950Z,4.55
2022-10-04T15:13:08.889Z,3.60
2022-10-04T15:15:30.379Z,1.50
2022-10-04T15:18:04.160Z,1.87
2022-10-04T15:20:53.888Z,1.25
2022-10-04T15:23:47.858Z,2.75
2022-10-04T15:26:18.201Z,1.77
2022-10-04T15:28:50.180Z,3.30
2022-10-04T15:31:36.685Z,3.28
2022-10-04T15:34:38.892Z,3.80
2022-10-04T15:37:27.870Z,2.72
2022-10-04T15:40:17.095Z,2.63
2022-10-04T15:43:22.072Z,2.28
2022-10-04T15:46:03.741Z,2.45
2022-10-04T15:49:06.273Z,2.35
2022-10-04T15:52:03.545Z,1.92
2022-10-04T15:55:08.532Z,3.10
2022-10-04T15:57:49.562Z,2.60
2022-10-04T16:00:27.447Z,2.83
2022-10-04T16:03:22.232Z,2.95
2022-10-04T16:06:27.412Z,3.30
2022-10-04T16:09:16.782Z,2.67
2022-10-04T16:11:57.976Z,2.25
2022-10-04T16:14:53.863Z,2.55
2022-10-04T16:17:43.937Z,6.82
2022-10-04T16:20:18.061Z,4.60
2022-10-04T16:23:26.687Z,2.63
2022-10-04T16:25:59.990Z,2.05
2022-10-04T16:28:35.445Z,4.03
2022-10-04T16:31:20.816Z,3.65
2022-10-04T16:34:24.112Z,4.30
2022-10-04T16:36:54.655Z,4.10
2022-10-04T16:39:58.102Z,4.40
2022-10-04T16:42:57.773Z,4.78
2022-10-04T16:45:42.189Z,3.78
2022-10-04T16:48:18.318Z,4.68
2022-10-04T16:51:29.920Z,6.63
2022-10-04T16:54:14.658Z,6.65
2022-10-04T16:56:54.115Z,7.10
2022-10-04T16:59:37.243Z,7.72
2022-10-04T17:02:33.576Z,9.02
2022-10-04T17:05:35.976Z,9.13
2022-10-04T17:08:15.444Z,9.13
2022-10-04T17:10:49.416Z,6.20
2022-10-04T17:13:25.622Z,7.62
2022-10-04T17:16:13.877Z,9.13
2022-10-04T17:19:20.988Z,8.80
2022-10-04T17:21:54.400Z,7.65
2022-10-04T17:24:37.643Z,6.35
2022-10-04T17:27:35.150Z,7.05
2022-10-04T17:30:26.732Z,9.50
2022-10-04T17:33:07.668Z,6.47
2022-10-04T17:35:53.596Z,7.50
2022-10-04T17:38:46.846Z,6.43
2022-10-04T17:41:21.613Z,10.00
2022-10-04T17:43:56.074Z,11.18
2022-10-04T17:46:33.560Z,7.17
2022-10-04T17:49:51.104Z,12.23
2022-10-04T17:52:48.109Z,8.20
2022-10-04T17:55:28.893Z,10.43
2022-10-04T17:58:05.010Z,8.07
2022-10-04T18:01:06.792Z,8.37
2022-10-04T18:03:45.724Z,9.98
2022-10-04T18:06:28.160Z,9.18
2022-10-04T18:09:21.998Z,8.43
2022-10-04T18:12:01.014Z,8.68
2022-10-04T18:14:59.983Z,8.00
2022-10-04T18:17:33.833Z,9.93
2022-10-04T18:20:11.007Z,10.15
2022-10-04T18:22:46.998Z,10.48
2022-10-04T18:25:22.521Z,7.97
2022-10-04T18:27:59.948Z,6.80
2022-10-04T18:30:27.884Z,6.97
2022-10-04T18:32:57.504Z,5.95
2022-10-04T18:35:33.184Z,5.43
2022-10-04T18:38:24.795Z,7.20
2022-10-04T18:40:57.142Z,6.33
2022-10-04T18:43:41.003Z,9.75
2022-10-04T18:46:21.061Z,8.35
2022-10-04T18:48:54.507Z,10.77
2022-10-04T18:51:40.659Z,8.27
2022-10-04T18:54:26.799Z,6.90
2022-10-04T18:57:33.587Z,10.30
2022-10-04T19:00:30.570Z,10.50
2022-10-04T19:03:36.257Z,9.15
2022-10-04T19:06:15.211Z,9.50
2022-10-04T19:09:13.307Z,10.90
2022-10-04T19:11:55.489Z,9.35
2022-10-04T19:14:39.942Z,9.48
2022-10-04T19:17:28.441Z,9.05
2022-10-04T19:20:04.772Z,8.60
2022-10-04T19:23:01.071Z,9.77
2022-10-04T19:26:03.042Z,6.72
2022-10-04T19:28:36.026Z,5.60
2022-10-04T19:31:21.638Z,4.60
2022-10-04T19:33:53.224Z,4.72
2022-10-04T19:36:31.459Z,4.00
2022-10-04T19:39:23.452Z,6.90
2022-10-04T19:42:16.111Z,10.07
2022-10-04T19:45:07.288Z,9.50
2022-10-04T19:47:48.947Z,8.38
2022-10-04T19:50:35.160Z,11.20
2022-10-04T19:53:17.599Z,10.38
2022-10-04T19:55:56.681Z,7.97
2022-10-04T19:58:30.277Z,8.18
2022-10-04T20:00:58.264Z,9.48
2022-10-04T20:03:26.516Z,7.40
2022-10-04T20:05:55.001Z,8.25
2022-10-04T20:08:47.404Z,5.12
2022-10-04T20:11:16.924Z,5.03
2022-10-04T20:13:44.481Z,4.95
2022-10-04T20:16:12.179Z,6.67
2022-10-04T20:18:41.457Z,7.45
2022-10-04T20:21:11.521Z,7.22
2022-10-04T20:23:39.155Z,7.22
2022-10-04T20:26:07.929Z,5.65
2022-10-04T20:28:40.295Z,4.73
2022-10-04T20:31:28.871Z,3.70
2022-10-04T20:34:33.424Z,6.00
2022-10-04T20:37:02.868Z,5.10
2022-10-04T20:39:43.348Z,6.87
2022-10-04T20:42:37.087Z,3.93
2022-10-04T20:45:10.493Z,4.60
2022-10-04T20:47:42.616Z,7.60
2022-10-04T20:50:09.950Z,6.55
2022-10-04T20:52:43.330Z,10.88
2022-10-04T20:55:22.289Z,8.60
2022-10-04T20:57:49.998Z,8.80
2022-10-04T21:00:20.089Z,7.95
2022-10-04T21:02:48.312Z,6.15
2022-10-04T21:05:26.888Z,7.10
2022-10-04T21:08:24.892Z,5.93
2022-10-04T21:11:07.696Z,11.70
2022-10-04T21:14:02.006Z,10.48
2022-10-04T21:16:42.418Z,10.68
2022-10-04T21:19:43.113Z,8.52
2022-10-04T21:22:32.197Z,6.67
2022-10-04T21:25:06.095Z,5.65
2022-10-04T21:27:33.767Z,6.85
2022-10-04T21:30:04.074Z,5.87
2022-10-04T21:32:37.000Z,7.15
2022-10-04T21:35:06.328Z,7.60
2022-10-04T21:37:34.429Z,4.18
2022-10-04T21:40:04.041Z,3.25
2022-10-04T21:42:31.767Z,4.43
2022-10-04T21:44:59.202Z,6.55
2022-10-04T21:47:26.652Z,7.40
2022-10-04T21:49:55.172Z,9.93
2022-10-04T21:52:22.641Z,7.70
2022-10-04T21:54:50.062Z,6.75
2022-10-04T21:57:17.743Z,6.05
2022-10-04T21:59:45.192Z,6.70
2022-10-04T22:02:12.634Z,6.65
2022-10-04T22:04:41.613Z,10.38
2022-10-04T22:07:10.647Z,6.65
2022-10-04T22:09:38.144Z,5.10
2022-10-04T22:12:05.875Z,6.27
2022-10-04T22:14:33.363Z,5.40
2022-10-04T22:17:00.804Z,6.37
2022-10-04T22:19:28.580Z,5.45
2022-10-04T22:21:56.007Z,7.03
2022-10-04T22:24:23.426Z,8.37
2022-10-04T22:26:51.237Z,6.30
2022-10-04T22:29:19.155Z,7.35
2022-10-04T22:31:52.078Z,8.52
2022-10-04T22:34:22.806Z,8.00
2022-10-04T22:36:54.200Z,6.77
2022-10-04T22:39:22.194Z,8.25
2022-10-04T22:41:55.541Z,7.62
2022-10-04T22:44:27.652Z,8.30
2022-10-04T22:47:01.109Z,5.40
2022-10-04T22:49:35.032Z,7.47
2022-10-04T22:52:09.891Z,5.47
2022-10-04T22:54:39.819Z,4.87
2022-10-04T22:57:10.385Z,8.75
2022-10-04T22:59:40.995Z,8.25
2022-10-04T23:02:24.051Z,6.17
2022-10-04T23:04:54.516Z,5.32
2022-10-04T23:07:22.628Z,5.28
2022-10-04T23:09:50.340Z,6.50
2022-10-04T23:12:18.235Z,7.47
2022-10-04T23:14:45.668Z,4.63
2022-10-04T23:17:29.072Z,4.25
2022-10-04T23:19:59.206Z,4.97
2022-10-04T23:22:29.536Z,7.12
2022-10-04T23:24:57.782Z,6.00
2022-10-04T23:27:25.298Z,5.67
2022-10-04T23:30:01.707Z,4.45
2022-10-04T23:32:31.857Z,6.78
2022-10-04T23:35:01.732Z,5.93
2022-10-04T23:37:32.472Z,6.37
2022-10-04T23:39:59.983Z,3.83
2022-10-04T23:42:31.914Z,6.57
2022-10-04T23:45:01.684Z,5.28
2022-10-04T23:47:34.156Z,5.70
2022-10-04T23:50:05.749Z,6.10
2022-10-04T23:52:38.837Z,3.87
2022-10-04T23:55:25.915Z,5.72
2022-10-04T23:57:53.301Z,6.55
